Strona główna
METAR-TAF:

METAR-TAF

Lotnisko :

Port lotniczy Ponta Delgada

Ponta Delgada, Azory, Portugalia

Szerokość geograficzna: 37-44N, Długość geograficzna: 025-42W, wysokość: 71 m

Aktualna obserwacja pogody

Raport powstał 18 minut temu, godzina 23:30 UTC
Wiatr 2 kt z kierunków zmiennych
Temperatura 14°C
Wilgotność 94%
Ciśnienie 1033 hPa
Widzialność 10 km lub więcej
Rozproszone chmury na wysokości 900 ft

METAR: LPPD 232330Z VRB02KT 9999 SCT009 14/13 Q1033

czas: 22:48 (23:48 UTC)

Prognoza

Raport powstał 48 minut temu, godzina 23:00 UTC
Prognoza ważna od 24 godzina 00 UTC do 24 godzina 24 UTC
Wiatr 5 kt z kierunków zmiennych
Widzialność 10 km lub więcej
Rozproszone chmury na wysokości 2500 ft

TAF: LPPD 232300Z 2400/2424 VRB05KT 9999 SCT025

Obserwacja i prognoza pogody dla ponad 4000 lotnisk (raport METAR i TAF).

Dostępne stacje oznaczono żółtymi i czerwonymi punktami na mapie.

Najedź kursorem aby zobaczyć nazwę stacji.

Kliknij aby zobaczyć obserwacje i prognozy pogody.

Aby zmienić mapę: kliknij na zielony przycisk z czarnym krzyżykiem, aby powiększyć; na zielony przycisk z myślnikiem, aby pomniejszyć; na zielone strzałki, aby przejść do map sąsiednich.


METAR-TAF: